sensor_id;sensor_type;location;lat;lon;timestamp;P1;durP1;ratioP1;P2;durP2;ratioP2
5823;SDS011;2938;52.254;12.988;2023-10-19T00:01:06;21.02;;;14.25;;
5823;SDS011;2938;52.254;12.988;2023-10-19T00:03:33;25.10;;;14.50;;
5823;SDS011;2938;52.254;12.988;2023-10-19T00:05:59;24.13;;;15.63;;
5823;SDS011;2938;52.254;12.988;2023-10-19T00:08:24;26.88;;;15.50;;
5823;SDS011;2938;52.254;12.988;2023-10-19T00:10:51;32.25;;;13.88;;
5823;SDS011;2938;52.254;12.988;2023-10-19T00:13:27;20.73;;;14.15;;
5823;SDS011;2938;52.254;12.988;2023-10-19T00:15:54;23.10;;;14.20;;
5823;SDS011;2938;52.254;12.988;2023-10-19T00:18:22;23.35;;;14.13;;
5823;SDS011;2938;52.254;12.988;2023-10-19T00:20:50;20.50;;;14.18;;
5823;SDS011;2938;52.254;12.988;2023-10-19T00:23:17;23.60;;;14.35;;
5823;SDS011;2938;52.254;12.988;2023-10-19T00:25:50;22.92;;;13.85;;
5823;SDS011;2938;52.254;12.988;2023-10-19T00:28:19;21.92;;;14.55;;
5823;SDS011;2938;52.254;12.988;2023-10-19T00:30:47;25.00;;;15.05;;
5823;SDS011;2938;52.254;12.988;2023-10-19T00:33:15;27.85;;;15.80;;
5823;SDS011;2938;52.254;12.988;2023-10-19T00:35:42;28.05;;;16.17;;
5823;SDS011;2938;52.254;12.988;2023-10-19T00:38:11;21.58;;;15.82;;
5823;SDS011;2938;52.254;12.988;2023-10-19T00:40:52;26.55;;;14.13;;
5823;SDS011;2938;52.254;12.988;2023-10-19T00:43:30;24.75;;;14.80;;
5823;SDS011;2938;52.254;12.988;2023-10-19T00:45:59;25.08;;;15.98;;
5823;SDS011;2938;52.254;12.988;2023-10-19T00:48:27;30.48;;;15.70;;
5823;SDS011;2938;52.254;12.988;2023-10-19T00:50:53;20.83;;;14.55;;
5823;SDS011;2938;52.254;12.988;2023-10-19T00:53:31;26.15;;;16.08;;
5823;SDS011;2938;52.254;12.988;2023-10-19T00:55:57;19.65;;;14.10;;
5823;SDS011;2938;52.254;12.988;2023-10-19T00:58:23;23.05;;;14.98;;
5823;SDS011;2938;52.254;12.988;2023-10-19T01:03:21;21.60;;;15.10;;
5823;SDS011;2938;52.254;12.988;2023-10-19T01:05:46;27.10;;;17.80;;
5823;SDS011;2938;52.254;12.988;2023-10-19T01:08:15;26.98;;;15.15;;
5823;SDS011;2938;52.254;12.988;2023-10-19T01:10:51;28.67;;;16.00;;
5823;SDS011;2938;52.254;12.988;2023-10-19T01:13:17;28.35;;;15.82;;
5823;SDS011;2938;52.254;12.988;2023-10-19T01:15:44;30.88;;;16.52;;
5823;SDS011;2938;52.254;12.988;2023-10-19T01:18:14;28.23;;;16.55;;
5823;SDS011;2938;52.254;12.988;2023-10-19T01:20:40;23.73;;;16.08;;
5823;SDS011;2938;52.254;12.988;2023-10-19T01:23:20;27.27;;;16.30;;
5823;SDS011;2938;52.254;12.988;2023-10-19T01:25:49;31.77;;;16.15;;
5823;SDS011;2938;52.254;12.988;2023-10-19T01:28:21;30.83;;;20.52;;
5823;SDS011;2938;52.254;12.988;2023-10-19T01:30:50;26.92;;;16.95;;
5823;SDS011;2938;52.254;12.988;2023-10-19T01:33:19;24.45;;;18.75;;
5823;SDS011;2938;52.254;12.988;2023-10-19T01:35:45;25.35;;;16.27;;
5823;SDS011;2938;52.254;12.988;2023-10-19T01:38:29;25.55;;;15.18;;
5823;SDS011;2938;52.254;12.988;2023-10-19T01:40:58;23.30;;;16.27;;
5823;SDS011;2938;52.254;12.988;2023-10-19T01:43:25;28.40;;;16.02;;
5823;SDS011;2938;52.254;12.988;2023-10-19T01:45:59;24.63;;;16.13;;
5823;SDS011;2938;52.254;12.988;2023-10-19T01:48:30;30.73;;;18.02;;
5823;SDS011;2938;52.254;12.988;2023-10-19T01:50:59;26.45;;;16.98;;
5823;SDS011;2938;52.254;12.988;2023-10-19T01:53:28;25.00;;;15.23;;
5823;SDS011;2938;52.254;12.988;2023-10-19T01:55:54;30.42;;;17.30;;
5823;SDS011;2938;52.254;12.988;2023-10-19T01:58:23;27.88;;;15.23;;
5823;SDS011;2938;52.254;12.988;2023-10-19T02:00:50;26.48;;;16.98;;
5823;SDS011;2938;52.254;12.988;2023-10-19T02:03:19;29.08;;;17.20;;
5823;SDS011;2938;52.254;12.988;2023-10-19T02:05:45;27.45;;;17.70;;
5823;SDS011;2938;52.254;12.988;2023-10-19T02:08:14;25.52;;;17.15;;
5823;SDS011;2938;52.254;12.988;2023-10-19T02:10:45;31.05;;;16.80;;
5823;SDS011;2938;52.254;12.988;2023-10-19T02:13:11;30.02;;;14.80;;
5823;SDS011;2938;52.254;12.988;2023-10-19T02:15:40;24.65;;;16.25;;
5823;SDS011;2938;52.254;12.988;2023-10-19T02:18:06;25.55;;;16.27;;
5823;SDS011;2938;52.254;12.988;2023-10-19T02:20:34;29.65;;;16.65;;
5823;SDS011;2938;52.254;12.988;2023-10-19T02:22:59;25.55;;;16.42;;
5823;SDS011;2938;52.254;12.988;2023-10-19T02:25:28;32.67;;;17.83;;
5823;SDS011;2938;52.254;12.988;2023-10-19T02:27:55;31.73;;;17.70;;
5823;SDS011;2938;52.254;12.988;2023-10-19T02:30:20;22.98;;;16.05;;
5823;SDS011;2938;52.254;12.988;2023-10-19T02:32:46;25.70;;;15.30;;
5823;SDS011;2938;52.254;12.988;2023-10-19T02:35:12;30.83;;;16.67;;
5823;SDS011;2938;52.254;12.988;2023-10-19T02:37:38;29.27;;;16.35;;
5823;SDS011;2938;52.254;12.988;2023-10-19T02:40:04;28.17;;;17.20;;
5823;SDS011;2938;52.254;12.988;2023-10-19T02:42:44;26.48;;;15.43;;
5823;SDS011;2938;52.254;12.988;2023-10-19T02:45:11;29.45;;;17.75;;
5823;SDS011;2938;52.254;12.988;2023-10-19T02:47:40;27.35;;;16.92;;
5823;SDS011;2938;52.254;12.988;2023-10-19T02:50:07;25.05;;;15.95;;
5823;SDS011;2938;52.254;12.988;2023-10-19T02:52:37;27.50;;;16.52;;
5823;SDS011;2938;52.254;12.988;2023-10-19T02:55:08;27.23;;;16.80;;
5823;SDS011;2938;52.254;12.988;2023-10-19T02:57:35;24.40;;;15.77;;
5823;SDS011;2938;52.254;12.988;2023-10-19T03:00:00;30.35;;;18.48;;
5823;SDS011;2938;52.254;12.988;2023-10-19T03:02:32;27.33;;;17.33;;
5823;SDS011;2938;52.254;12.988;2023-10-19T03:04:57;26.90;;;16.23;;
5823;SDS011;2938;52.254;12.988;2023-10-19T03:07:23;27.88;;;17.17;;
5823;SDS011;2938;52.254;12.988;2023-10-19T03:09:48;27.92;;;18.00;;
5823;SDS011;2938;52.254;12.988;2023-10-19T03:12:14;30.98;;;16.55;;
5823;SDS011;2938;52.254;12.988;2023-10-19T03:14:42;32.72;;;16.83;;
5823;SDS011;2938;52.254;12.988;2023-10-19T03:17:08;24.63;;;17.00;;
5823;SDS011;2938;52.254;12.988;2023-10-19T03:19:34;28.50;;;17.30;;
5823;SDS011;2938;52.254;12.988;2023-10-19T03:21:59;31.02;;;18.65;;
5823;SDS011;2938;52.254;12.988;2023-10-19T03:24:25;26.42;;;15.68;;
5823;SDS011;2938;52.254;12.988;2023-10-19T03:27:06;26.80;;;17.90;;
5823;SDS011;2938;52.254;12.988;2023-10-19T03:29:41;32.83;;;17.25;;
5823;SDS011;2938;52.254;12.988;2023-10-19T03:32:11;23.33;;;18.05;;
5823;SDS011;2938;52.254;12.988;2023-10-19T03:34:37;29.58;;;17.05;;
5823;SDS011;2938;52.254;12.988;2023-10-19T03:37:03;26.90;;;17.40;;
5823;SDS011;2938;52.254;12.988;2023-10-19T03:39:35;30.38;;;17.83;;
5823;SDS011;2938;52.254;12.988;2023-10-19T03:42:02;25.77;;;17.38;;
5823;SDS011;2938;52.254;12.988;2023-10-19T03:44:30;33.75;;;18.75;;
5823;SDS011;2938;52.254;12.988;2023-10-19T03:47:08;29.10;;;17.50;;
5823;SDS011;2938;52.254;12.988;2023-10-19T03:49:37;31.20;;;18.70;;
5823;SDS011;2938;52.254;12.988;2023-10-19T03:52:04;39.70;;;18.63;;
5823;SDS011;2938;52.254;12.988;2023-10-19T03:54:35;19.77;;;13.30;;
5823;SDS011;2938;52.254;12.988;2023-10-19T03:57:04;27.92;;;19.35;;
5823;SDS011;2938;52.254;12.988;2023-10-19T03:59:49;25.15;;;16.92;;
5823;SDS011;2938;52.254;12.988;2023-10-19T04:02:15;31.60;;;19.55;;
5823;SDS011;2938;52.254;12.988;2023-10-19T04:04:42;31.15;;;19.05;;
5823;SDS011;2938;52.254;12.988;2023-10-19T04:07:13;30.60;;;19.25;;
5823;SDS011;2938;52.254;12.988;2023-10-19T04:09:51;32.92;;;18.58;;
5823;SDS011;2938;52.254;12.988;2023-10-19T04:12:33;33.03;;;17.00;;
5823;SDS011;2938;52.254;12.988;2023-10-19T04:15:00;29.50;;;18.65;;
5823;SDS011;2938;52.254;12.988;2023-10-19T04:17:34;30.73;;;19.33;;
5823;SDS011;2938;52.254;12.988;2023-10-19T04:20:01;32.03;;;19.63;;
5823;SDS011;2938;52.254;12.988;2023-10-19T04:22:34;31.38;;;17.67;;
5823;SDS011;2938;52.254;12.988;2023-10-19T04:25:00;32.17;;;18.13;;
5823;SDS011;2938;52.254;12.988;2023-10-19T04:27:31;33.03;;;19.43;;
5823;SDS011;2938;52.254;12.988;2023-10-19T04:30:00;28.27;;;19.50;;
5823;SDS011;2938;52.254;12.988;2023-10-19T04:32:26;37.75;;;19.75;;
5823;SDS011;2938;52.254;12.988;2023-10-19T04:34:54;39.08;;;19.30;;
5823;SDS011;2938;52.254;12.988;2023-10-19T04:37:20;34.28;;;18.67;;
5823;SDS011;2938;52.254;12.988;2023-10-19T04:39:47;35.00;;;20.35;;
5823;SDS011;2938;52.254;12.988;2023-10-19T04:42:14;37.28;;;20.70;;
5823;SDS011;2938;52.254;12.988;2023-10-19T04:44:39;38.67;;;22.85;;
5823;SDS011;2938;52.254;12.988;2023-10-19T04:47:05;42.30;;;21.27;;
5823;SDS011;2938;52.254;12.988;2023-10-19T04:49:30;40.53;;;22.80;;
5823;SDS011;2938;52.254;12.988;2023-10-19T04:51:55;36.28;;;21.35;;
5823;SDS011;2938;52.254;12.988;2023-10-19T04:54:20;36.60;;;21.88;;
5823;SDS011;2938;52.254;12.988;2023-10-19T04:56:46;36.80;;;23.08;;
5823;SDS011;2938;52.254;12.988;2023-10-19T04:59:11;33.15;;;22.08;;
5823;SDS011;2938;52.254;12.988;2023-10-19T05:01:36;38.58;;;22.05;;
5823;SDS011;2938;52.254;12.988;2023-10-19T05:04:02;35.47;;;23.10;;
5823;SDS011;2938;52.254;12.988;2023-10-19T05:06:28;40.83;;;25.05;;
5823;SDS011;2938;52.254;12.988;2023-10-19T05:08:53;37.13;;;23.60;;
5823;SDS011;2938;52.254;12.988;2023-10-19T05:11:18;38.80;;;22.90;;
5823;SDS011;2938;52.254;12.988;2023-10-19T05:13:44;37.42;;;24.70;;
5823;SDS011;2938;52.254;12.988;2023-10-19T05:16:09;38.17;;;24.35;;
5823;SDS011;2938;52.254;12.988;2023-10-19T05:18:34;41.88;;;27.55;;
5823;SDS011;2938;52.254;12.988;2023-10-19T05:20:59;38.45;;;25.92;;
5823;SDS011;2938;52.254;12.988;2023-10-19T05:23:26;43.00;;;26.13;;
5823;SDS011;2938;52.254;12.988;2023-10-19T05:26:02;47.22;;;25.17;;
5823;SDS011;2938;52.254;12.988;2023-10-19T05:28:29;50.38;;;28.20;;
5823;SDS011;2938;52.254;12.988;2023-10-19T05:30:54;40.53;;;25.80;;
5823;SDS011;2938;52.254;12.988;2023-10-19T05:33:20;49.13;;;28.00;;
5823;SDS011;2938;52.254;12.988;2023-10-19T05:35:48;46.28;;;26.40;;
5823;SDS011;2938;52.254;12.988;2023-10-19T05:38:14;48.90;;;28.92;;
5823;SDS011;2938;52.254;12.988;2023-10-19T05:40:40;45.45;;;29.02;;
5823;SDS011;2938;52.254;12.988;2023-10-19T05:43:08;48.70;;;29.85;;
5823;SDS011;2938;52.254;12.988;2023-10-19T05:45:33;47.38;;;28.38;;
5823;SDS011;2938;52.254;12.988;2023-10-19T05:48:01;44.78;;;28.15;;
5823;SDS011;2938;52.254;12.988;2023-10-19T05:50:28;45.22;;;26.45;;
5823;SDS011;2938;52.254;12.988;2023-10-19T05:52:54;59.10;;;34.15;;
5823;SDS011;2938;52.254;12.988;2023-10-19T05:55:19;41.33;;;27.80;;
5823;SDS011;2938;52.254;12.988;2023-10-19T05:57:46;47.75;;;29.63;;
5823;SDS011;2938;52.254;12.988;2023-10-19T06:00:12;43.17;;;28.13;;
5823;SDS011;2938;52.254;12.988;2023-10-19T06:02:48;52.63;;;31.98;;
5823;SDS011;2938;52.254;12.988;2023-10-19T06:05:16;46.58;;;30.45;;
5823;SDS011;2938;52.254;12.988;2023-10-19T06:07:46;45.33;;;30.02;;
5823;SDS011;2938;52.254;12.988;2023-10-19T06:10:14;47.08;;;28.55;;
5823;SDS011;2938;52.254;12.988;2023-10-19T06:12:41;53.25;;;30.10;;
5823;SDS011;2938;52.254;12.988;2023-10-19T06:15:07;43.95;;;28.00;;
5823;SDS011;2938;52.254;12.988;2023-10-19T06:17:32;48.83;;;29.58;;
5823;SDS011;2938;52.254;12.988;2023-10-19T06:19:58;62.40;;;34.67;;
5823;SDS011;2938;52.254;12.988;2023-10-19T06:22:23;51.63;;;31.45;;
5823;SDS011;2938;52.254;12.988;2023-10-19T06:24:48;47.22;;;29.80;;
5823;SDS011;2938;52.254;12.988;2023-10-19T06:27:14;54.00;;;30.42;;
5823;SDS011;2938;52.254;12.988;2023-10-19T06:29:39;52.20;;;31.45;;
5823;SDS011;2938;52.254;12.988;2023-10-19T06:32:04;50.40;;;31.88;;
5823;SDS011;2938;52.254;12.988;2023-10-19T06:34:30;57.88;;;31.60;;
5823;SDS011;2938;52.254;12.988;2023-10-19T06:36:55;52.63;;;33.75;;
5823;SDS011;2938;52.254;12.988;2023-10-19T06:39:20;44.50;;;29.33;;
5823;SDS011;2938;52.254;12.988;2023-10-19T06:41:46;54.50;;;33.65;;
5823;SDS011;2938;52.254;12.988;2023-10-19T06:44:13;53.28;;;33.17;;
5823;SDS011;2938;52.254;12.988;2023-10-19T06:46:38;52.90;;;31.20;;
5823;SDS011;2938;52.254;12.988;2023-10-19T06:49:04;52.97;;;33.55;;
5823;SDS011;2938;52.254;12.988;2023-10-19T06:51:30;49.15;;;32.53;;
5823;SDS011;2938;52.254;12.988;2023-10-19T06:53:55;51.15;;;32.60;;
5823;SDS011;2938;52.254;12.988;2023-10-19T06:56:21;52.97;;;33.80;;
5823;SDS011;2938;52.254;12.988;2023-10-19T06:58:46;53.33;;;31.65;;
5823;SDS011;2938;52.254;12.988;2023-10-19T07:01:11;57.85;;;33.13;;
5823;SDS011;2938;52.254;12.988;2023-10-19T07:03:38;48.60;;;32.20;;
5823;SDS011;2938;52.254;12.988;2023-10-19T07:06:03;54.70;;;35.05;;
5823;SDS011;2938;52.254;12.988;2023-10-19T07:08:28;52.30;;;33.80;;
5823;SDS011;2938;52.254;12.988;2023-10-19T07:10:55;50.15;;;34.17;;
5823;SDS011;2938;52.254;12.988;2023-10-19T07:13:21;57.25;;;32.47;;
5823;SDS011;2938;52.254;12.988;2023-10-19T07:15:47;55.92;;;32.67;;
5823;SDS011;2938;52.254;12.988;2023-10-19T07:18:16;54.83;;;33.67;;
5823;SDS011;2938;52.254;12.988;2023-10-19T07:20:41;55.80;;;34.63;;
5823;SDS011;2938;52.254;12.988;2023-10-19T07:23:07;50.42;;;32.92;;
5823;SDS011;2938;52.254;12.988;2023-10-19T07:25:47;48.83;;;31.77;;
5823;SDS011;2938;52.254;12.988;2023-10-19T07:28:13;61.60;;;33.35;;
5823;SDS011;2938;52.254;12.988;2023-10-19T07:30:39;66.28;;;34.30;;
5823;SDS011;2938;52.254;12.988;2023-10-19T07:33:08;54.83;;;32.83;;
5823;SDS011;2938;52.254;12.988;2023-10-19T07:35:35;56.45;;;35.15;;
5823;SDS011;2938;52.254;12.988;2023-10-19T07:38:03;51.05;;;33.80;;
5823;SDS011;2938;52.254;12.988;2023-10-19T07:40:29;57.45;;;32.22;;
5823;SDS011;2938;52.254;12.988;2023-10-19T07:42:54;40.42;;;29.23;;
5823;SDS011;2938;52.254;12.988;2023-10-19T07:45:20;49.70;;;34.45;;
5823;SDS011;2938;52.254;12.988;2023-10-19T07:47:46;55.35;;;33.72;;
5823;SDS011;2938;52.254;12.988;2023-10-19T07:50:11;55.63;;;34.53;;
5823;SDS011;2938;52.254;12.988;2023-10-19T07:52:40;50.20;;;32.33;;
5823;SDS011;2938;52.254;12.988;2023-10-19T07:55:10;55.60;;;33.92;;
5823;SDS011;2938;52.254;12.988;2023-10-19T07:57:36;51.03;;;32.65;;
5823;SDS011;2938;52.254;12.988;2023-10-19T08:00:01;55.08;;;32.60;;
5823;SDS011;2938;52.254;12.988;2023-10-19T08:02:28;50.25;;;33.65;;
5823;SDS011;2938;52.254;12.988;2023-10-19T08:04:55;52.08;;;29.98;;
5823;SDS011;2938;52.254;12.988;2023-10-19T08:07:21;53.45;;;35.00;;
5823;SDS011;2938;52.254;12.988;2023-10-19T08:09:46;57.08;;;34.03;;
5823;SDS011;2938;52.254;12.988;2023-10-19T08:12:11;44.28;;;29.73;;
5823;SDS011;2938;52.254;12.988;2023-10-19T08:14:38;48.78;;;32.58;;
5823;SDS011;2938;52.254;12.988;2023-10-19T08:17:07;51.40;;;32.58;;
5823;SDS011;2938;52.254;12.988;2023-10-19T08:19:34;51.15;;;30.90;;
5823;SDS011;2938;52.254;12.988;2023-10-19T08:21:59;60.22;;;37.15;;
5823;SDS011;2938;52.254;12.988;2023-10-19T08:24:24;47.90;;;33.15;;
5823;SDS011;2938;52.254;12.988;2023-10-19T08:26:52;53.55;;;31.80;;
5823;SDS011;2938;52.254;12.988;2023-10-19T08:29:17;54.75;;;34.00;;
5823;SDS011;2938;52.254;12.988;2023-10-19T08:31:44;51.42;;;33.40;;
5823;SDS011;2938;52.254;12.988;2023-10-19T08:34:10;56.38;;;32.10;;
5823;SDS011;2938;52.254;12.988;2023-10-19T08:36:36;48.03;;;33.22;;
5823;SDS011;2938;52.254;12.988;2023-10-19T08:39:02;61.33;;;34.10;;
5823;SDS011;2938;52.254;12.988;2023-10-19T08:41:32;61.55;;;33.63;;
5823;SDS011;2938;52.254;12.988;2023-10-19T08:43:59;59.17;;;35.67;;
5823;SDS011;2938;52.254;12.988;2023-10-19T08:46:26;55.75;;;36.22;;
5823;SDS011;2938;52.254;12.988;2023-10-19T08:48:53;59.95;;;36.65;;
5823;SDS011;2938;52.254;12.988;2023-10-19T08:51:20;59.17;;;36.55;;
5823;SDS011;2938;52.254;12.988;2023-10-19T08:53:45;51.70;;;35.35;;
5823;SDS011;2938;52.254;12.988;2023-10-19T08:56:11;59.35;;;34.25;;
5823;SDS011;2938;52.254;12.988;2023-10-19T08:58:37;49.97;;;34.35;;
5823;SDS011;2938;52.254;12.988;2023-10-19T09:01:02;55.15;;;36.28;;
5823;SDS011;2938;52.254;12.988;2023-10-19T09:03:35;50.80;;;31.15;;
5823;SDS011;2938;52.254;12.988;2023-10-19T09:06:00;54.38;;;35.10;;
5823;SDS011;2938;52.254;12.988;2023-10-19T09:08:27;54.58;;;34.50;;
5823;SDS011;2938;52.254;12.988;2023-10-19T09:11:05;50.47;;;35.63;;
5823;SDS011;2938;52.254;12.988;2023-10-19T09:13:46;52.72;;;34.80;;
5823;SDS011;2938;52.254;12.988;2023-10-19T09:16:16;51.72;;;33.85;;
5823;SDS011;2938;52.254;12.988;2023-10-19T09:18:42;48.65;;;33.78;;
5823;SDS011;2938;52.254;12.988;2023-10-19T09:21:08;47.75;;;33.47;;
5823;SDS011;2938;52.254;12.988;2023-10-19T09:23:36;48.88;;;32.75;;
5823;SDS011;2938;52.254;12.988;2023-10-19T09:26:02;52.90;;;35.53;;
5823;SDS011;2938;52.254;12.988;2023-10-19T09:28:28;43.15;;;31.58;;
5823;SDS011;2938;52.254;12.988;2023-10-19T09:30:54;54.30;;;36.97;;
5823;SDS011;2938;52.254;12.988;2023-10-19T09:33:20;51.13;;;34.40;;
5823;SDS011;2938;52.254;12.988;2023-10-19T09:35:47;48.78;;;34.28;;
5823;SDS011;2938;52.254;12.988;2023-10-19T09:38:13;53.58;;;34.45;;
5823;SDS011;2938;52.254;12.988;2023-10-19T09:40:40;51.88;;;34.60;;
5823;SDS011;2938;52.254;12.988;2023-10-19T09:43:07;53.30;;;35.53;;
5823;SDS011;2938;52.254;12.988;2023-10-19T09:45:35;55.63;;;33.58;;
5823;SDS011;2938;52.254;12.988;2023-10-19T09:48:03;50.90;;;35.33;;
5823;SDS011;2938;52.254;12.988;2023-10-19T09:50:30;51.60;;;35.22;;
5823;SDS011;2938;52.254;12.988;2023-10-19T09:52:56;48.65;;;33.75;;
5823;SDS011;2938;52.254;12.988;2023-10-19T09:55:22;59.15;;;34.38;;
5823;SDS011;2938;52.254;12.988;2023-10-19T09:57:53;45.50;;;30.70;;
5823;SDS011;2938;52.254;12.988;2023-10-19T10:00:21;50.83;;;33.03;;
5823;SDS011;2938;52.254;12.988;2023-10-19T10:02:52;48.42;;;33.47;;
5823;SDS011;2938;52.254;12.988;2023-10-19T10:10:42;59.60;;;37.72;;
5823;SDS011;2938;52.254;12.988;2023-10-19T10:15:58;50.33;;;34.35;;
5823;SDS011;2938;52.254;12.988;2023-10-19T10:18:23;52.72;;;35.42;;
5823;SDS011;2938;52.254;12.988;2023-10-19T10:26:25;48.13;;;33.15;;
5823;SDS011;2938;52.254;12.988;2023-10-19T10:31:56;64.10;;;36.65;;
5823;SDS011;2938;52.254;12.988;2023-10-19T10:37:07;59.05;;;33.72;;
5823;SDS011;2938;52.254;12.988;2023-10-19T10:39:33;50.33;;;32.38;;
5823;SDS011;2938;52.254;12.988;2023-10-19T10:42:04;52.15;;;34.88;;
5823;SDS011;2938;52.254;12.988;2023-10-19T10:44:37;54.70;;;34.88;;
5823;SDS011;2938;52.254;12.988;2023-10-19T10:47:04;54.40;;;37.10;;
5823;SDS011;2938;52.254;12.988;2023-10-19T10:49:33;53.42;;;34.42;;
5823;SDS011;2938;52.254;12.988;2023-10-19T10:51:59;51.75;;;32.85;;
5823;SDS011;2938;52.254;12.988;2023-10-19T10:54:24;46.38;;;30.73;;
5823;SDS011;2938;52.254;12.988;2023-10-19T10:56:50;50.60;;;32.28;;
5823;SDS011;2938;52.254;12.988;2023-10-19T10:59:15;46.80;;;33.08;;
5823;SDS011;2938;52.254;12.988;2023-10-19T11:01:40;49.53;;;31.25;;
5823;SDS011;2938;52.254;12.988;2023-10-19T11:04:10;46.15;;;32.08;;
5823;SDS011;2938;52.254;12.988;2023-10-19T11:06:48;51.28;;;31.23;;
5823;SDS011;2938;52.254;12.988;2023-10-19T11:09:17;43.63;;;30.40;;
5823;SDS011;2938;52.254;12.988;2023-10-19T11:11:47;45.08;;;30.40;;
5823;SDS011;2938;52.254;12.988;2023-10-19T11:14:14;45.55;;;31.50;;
5823;SDS011;2938;52.254;12.988;2023-10-19T11:16:39;34.28;;;23.55;;
5823;SDS011;2938;52.254;12.988;2023-10-19T11:19:05;41.75;;;27.13;;
5823;SDS011;2938;52.254;12.988;2023-10-19T11:21:30;44.42;;;27.30;;
5823;SDS011;2938;52.254;12.988;2023-10-19T11:23:55;37.83;;;27.90;;
5823;SDS011;2938;52.254;12.988;2023-10-19T11:26:22;41.58;;;28.00;;
5823;SDS011;2938;52.254;12.988;2023-10-19T11:31:30;32.75;;;23.38;;
5823;SDS011;2938;52.254;12.988;2023-10-19T11:34:05;34.63;;;23.73;;
5823;SDS011;2938;52.254;12.988;2023-10-19T11:36:31;38.92;;;26.02;;
5823;SDS011;2938;52.254;12.988;2023-10-19T11:38:56;38.58;;;24.17;;
5823;SDS011;2938;52.254;12.988;2023-10-19T11:41:22;34.40;;;25.10;;
5823;SDS011;2938;52.254;12.988;2023-10-19T11:43:48;45.33;;;24.80;;
5823;SDS011;2938;52.254;12.988;2023-10-19T11:46:14;28.27;;;21.70;;
5823;SDS011;2938;52.254;12.988;2023-10-19T11:48:41;31.30;;;21.27;;
5823;SDS011;2938;52.254;12.988;2023-10-19T11:51:08;31.27;;;24.30;;
5823;SDS011;2938;52.254;12.988;2023-10-19T11:53:35;29.92;;;23.15;;
5823;SDS011;2938;52.254;12.988;2023-10-19T11:56:06;29.88;;;21.38;;
5823;SDS011;2938;52.254;12.988;2023-10-19T11:58:35;28.02;;;21.60;;
5823;SDS011;2938;52.254;12.988;2023-10-19T12:01:02;34.45;;;24.20;;
5823;SDS011;2938;52.254;12.988;2023-10-19T12:03:30;36.65;;;23.45;;
5823;SDS011;2938;52.254;12.988;2023-10-19T12:05:56;31.38;;;22.67;;
5823;SDS011;2938;52.254;12.988;2023-10-19T12:08:21;30.00;;;23.42;;
5823;SDS011;2938;52.254;12.988;2023-10-19T12:10:47;30.92;;;21.52;;
5823;SDS011;2938;52.254;12.988;2023-10-19T12:13:14;31.10;;;22.48;;
5823;SDS011;2938;52.254;12.988;2023-10-19T12:15:41;31.65;;;22.30;;
5823;SDS011;2938;52.254;12.988;2023-10-19T12:18:06;29.70;;;22.25;;
5823;SDS011;2938;52.254;12.988;2023-10-19T12:20:33;29.63;;;22.05;;
5823;SDS011;2938;52.254;12.988;2023-10-19T12:23:00;28.15;;;21.42;;
5823;SDS011;2938;52.254;12.988;2023-10-19T12:25:25;28.98;;;21.88;;
5823;SDS011;2938;52.254;12.988;2023-10-19T12:27:54;34.97;;;22.77;;
5823;SDS011;2938;52.254;12.988;2023-10-19T12:30:20;34.10;;;22.80;;
5823;SDS011;2938;52.254;12.988;2023-10-19T12:32:46;29.30;;;23.30;;
5823;SDS011;2938;52.254;12.988;2023-10-19T12:35:14;32.22;;;22.58;;
5823;SDS011;2938;52.254;12.988;2023-10-19T12:37:40;32.45;;;23.65;;
5823;SDS011;2938;52.254;12.988;2023-10-19T12:40:11;29.73;;;19.98;;
5823;SDS011;2938;52.254;12.988;2023-10-19T12:42:51;32.67;;;22.88;;
5823;SDS011;2938;52.254;12.988;2023-10-19T12:45:19;30.77;;;23.13;;
5823;SDS011;2938;52.254;12.988;2023-10-19T12:47:45;36.28;;;24.42;;
5823;SDS011;2938;52.254;12.988;2023-10-19T12:50:10;32.85;;;24.15;;
5823;SDS011;2938;52.254;12.988;2023-10-19T12:52:38;33.17;;;23.52;;
5823;SDS011;2938;52.254;12.988;2023-10-19T12:55:05;31.85;;;21.40;;
5823;SDS011;2938;52.254;12.988;2023-10-19T12:57:31;32.17;;;22.55;;
5823;SDS011;2938;52.254;12.988;2023-10-19T12:59:57;30.88;;;22.67;;
5823;SDS011;2938;52.254;12.988;2023-10-19T13:02:31;30.20;;;21.58;;
5823;SDS011;2938;52.254;12.988;2023-10-19T13:04:57;30.02;;;23.48;;
5823;SDS011;2938;52.254;12.988;2023-10-19T13:07:24;32.60;;;24.65;;
5823;SDS011;2938;52.254;12.988;2023-10-19T13:09:50;35.58;;;24.20;;
5823;SDS011;2938;52.254;12.988;2023-10-19T13:12:15;31.17;;;21.98;;
5823;SDS011;2938;52.254;12.988;2023-10-19T13:14:41;28.90;;;21.70;;
5823;SDS011;2938;52.254;12.988;2023-10-19T13:17:08;28.65;;;21.58;;
5823;SDS011;2938;52.254;12.988;2023-10-19T13:19:34;32.30;;;23.15;;
5823;SDS011;2938;52.254;12.988;2023-10-19T13:22:01;36.65;;;22.88;;
5823;SDS011;2938;52.254;12.988;2023-10-19T13:24:30;29.98;;;21.67;;
5823;SDS011;2938;52.254;12.988;2023-10-19T13:26:56;29.17;;;21.90;;
5823;SDS011;2938;52.254;12.988;2023-10-19T13:29:22;31.65;;;22.67;;
5823;SDS011;2938;52.254;12.988;2023-10-19T13:31:49;32.65;;;23.50;;
5823;SDS011;2938;52.254;12.988;2023-10-19T13:34:14;31.33;;;21.77;;
5823;SDS011;2938;52.254;12.988;2023-10-19T13:36:40;35.10;;;23.73;;
5823;SDS011;2938;52.254;12.988;2023-10-19T13:39:06;33.45;;;22.83;;
5823;SDS011;2938;52.254;12.988;2023-10-19T13:41:31;35.75;;;25.92;;
5823;SDS011;2938;52.254;12.988;2023-10-19T13:43:57;34.28;;;23.50;;
5823;SDS011;2938;52.254;12.988;2023-10-19T13:46:22;36.15;;;25.38;;
5823;SDS011;2938;52.254;12.988;2023-10-19T13:48:49;34.60;;;24.52;;
5823;SDS011;2938;52.254;12.988;2023-10-19T13:51:18;35.58;;;24.38;;
5823;SDS011;2938;52.254;12.988;2023-10-19T13:53:45;35.22;;;25.23;;
5823;SDS011;2938;52.254;12.988;2023-10-19T13:56:10;38.33;;;25.75;;
5823;SDS011;2938;52.254;12.988;2023-10-19T13:58:36;31.10;;;23.80;;
5823;SDS011;2938;52.254;12.988;2023-10-19T14:01:10;33.00;;;24.45;;
5823;SDS011;2938;52.254;12.988;2023-10-19T14:03:36;35.40;;;26.33;;
5823;SDS011;2938;52.254;12.988;2023-10-19T14:06:04;37.95;;;27.58;;
5823;SDS011;2938;52.254;12.988;2023-10-19T14:08:30;40.75;;;27.35;;
5823;SDS011;2938;52.254;12.988;2023-10-19T14:11:02;36.88;;;26.70;;
5823;SDS011;2938;52.254;12.988;2023-10-19T14:13:28;37.25;;;26.98;;
5823;SDS011;2938;52.254;12.988;2023-10-19T14:15:54;37.22;;;26.45;;
5823;SDS011;2938;52.254;12.988;2023-10-19T14:18:19;34.08;;;24.42;;
5823;SDS011;2938;52.254;12.988;2023-10-19T14:20:44;35.00;;;26.50;;
5823;SDS011;2938;52.254;12.988;2023-10-19T14:23:10;38.85;;;27.83;;
5823;SDS011;2938;52.254;12.988;2023-10-19T14:25:36;39.75;;;26.35;;
5823;SDS011;2938;52.254;12.988;2023-10-19T14:28:03;36.25;;;27.20;;
5823;SDS011;2938;52.254;12.988;2023-10-19T14:30:31;38.00;;;26.60;;
5823;SDS011;2938;52.254;12.988;2023-10-19T14:32:58;35.78;;;24.88;;
5823;SDS011;2938;52.254;12.988;2023-10-19T14:35:23;39.88;;;27.90;;
5823;SDS011;2938;52.254;12.988;2023-10-19T14:37:53;40.53;;;27.52;;
5823;SDS011;2938;52.254;12.988;2023-10-19T14:40:23;42.10;;;29.30;;
5823;SDS011;2938;52.254;12.988;2023-10-19T14:42:50;39.15;;;29.13;;
5823;SDS011;2938;52.254;12.988;2023-10-19T14:45:22;41.05;;;28.70;;
5823;SDS011;2938;52.254;12.988;2023-10-19T14:47:53;38.75;;;27.80;;
5823;SDS011;2938;52.254;12.988;2023-10-19T14:50:20;42.83;;;29.13;;
5823;SDS011;2938;52.254;12.988;2023-10-19T14:52:46;46.17;;;31.13;;
5823;SDS011;2938;52.254;12.988;2023-10-19T14:55:15;40.63;;;29.33;;
5823;SDS011;2938;52.254;12.988;2023-10-19T14:57:44;45.08;;;32.20;;
5823;SDS011;2938;52.254;12.988;2023-10-19T15:00:11;44.97;;;29.02;;